createdAt,value
2017-05-22T00:00:16.777Z,12.24
2017-05-22T00:01:16.855Z,12.28
2017-05-22T00:02:16.820Z,12.23
2017-05-22T00:04:16.879Z,12.28
2017-05-22T00:05:16.895Z,12.19
2017-05-22T00:06:31.527Z,12.13
2017-05-22T00:07:16.953Z,12.13
2017-05-22T00:08:31.587Z,11.99
2017-05-22T00:09:16.685Z,11.96
2017-05-22T00:10:17.002Z,12.02
2017-05-22T00:11:17.047Z,12.07
2017-05-22T00:12:17.056Z,12.02
2017-05-22T00:13:17.096Z,12.1
2017-05-22T00:14:17.106Z,12.09
2017-05-22T00:15:16.824Z,12.19
2017-05-22T00:16:17.145Z,12.09
2017-05-22T00:17:16.870Z,12.02
2017-05-22T00:18:17.202Z,12.04
2017-05-22T00:19:17.232Z,11.98
2017-05-22T00:20:31.867Z,11.96
2017-05-22T00:21:17.277Z,11.96
2017-05-22T00:22:17.294Z,12.02
2017-05-22T00:23:17.318Z,12.12
2017-05-22T00:24:17.338Z,12.12
2017-05-22T00:25:17.362Z,12.29
2017-05-22T00:26:17.405Z,12.39
2017-05-22T00:28:17.423Z,12.27
2017-05-22T00:29:17.449Z,12.19
2017-05-22T00:30:17.482Z,12.12
2017-05-22T00:31:17.566Z,12.02
2017-05-22T00:33:17.550Z,12.2
2017-05-22T00:34:17.576Z,12.1
2017-05-22T00:35:17.610Z,12.09
2017-05-22T00:36:17.620Z,12.09
2017-05-22T00:37:17.650Z,12.09
2017-05-22T00:38:32.275Z,12.07
2017-05-22T00:39:17.697Z,12.04
2017-05-22T00:40:17.710Z,12.09
2017-05-22T00:41:32.352Z,12.04
2017-05-22T00:42:32.374Z,12.04
2017-05-22T00:43:17.478Z,11.94
2017-05-22T00:44:17.795Z,12.04
2017-05-22T00:45:17.828Z,12.04
2017-05-22T00:46:17.841Z,11.95
2017-05-22T00:47:17.874Z,12.02
2017-05-22T00:48:17.909Z,12.05
2017-05-22T00:49:17.918Z,12.05
2017-05-22T00:50:17.958Z,12.02
2017-05-22T00:51:17.962Z,12.01
2017-05-22T00:52:17.986Z,12.04
2017-05-22T00:53:18.024Z,12.09
2017-05-22T00:54:32.644Z,12.1
2017-05-22T00:55:18.047Z,12.01
2017-05-22T00:56:18.090Z,12.12
2017-05-22T00:57:18.110Z,12.02
2017-05-22T00:58:17.826Z,11.95
2017-05-22T00:59:17.857Z,12.04
2017-05-22T01:00:32.484Z,12.02
2017-05-22T01:01:17.893Z,12.1
2017-05-22T01:02:18.216Z,12.02
2017-05-22T01:03:17.931Z,12.1
2017-05-22T01:04:17.972Z,12.13
2017-05-22T01:05:17.990Z,12.12
2017-05-22T01:06:18.303Z,12.05
2017-05-22T01:07:18.332Z,12.2
2017-05-22T01:08:18.345Z,12.19
2017-05-22T01:09:18.374Z,12.27
2017-05-22T01:10:33.019Z,12.28
2017-05-22T01:11:18.122Z,12.21
2017-05-22T01:12:18.144Z,12.29
2017-05-22T01:13:18.484Z,12.27
2017-05-22T01:14:18.490Z,12.24
2017-05-22T01:15:18.519Z,12.1
2017-05-22T01:16:18.548Z,12.14
2017-05-22T01:17:18.566Z,12.14
2017-05-22T01:18:18.292Z,12.19
2017-05-22T01:19:18.614Z,12.14
2017-05-22T01:20:18.635Z,12.13
2017-05-22T01:21:18.665Z,12.16
2017-05-22T01:22:18.672Z,12.1
2017-05-22T01:23:18.410Z,12.19
2017-05-22T01:24:18.724Z,12.23
2017-05-22T01:25:18.758Z,12.09
2017-05-22T01:26:33.390Z,12.13
2017-05-22T01:27:18.806Z,12.14
2017-05-22T01:28:18.812Z,12.14
2017-05-22T01:29:18.845Z,12.16
2017-05-22T01:30:18.866Z,12.27
2017-05-22T01:31:18.886Z,12.28
2017-05-22T01:33:18.946Z,12.37
2017-05-22T01:34:33.584Z,12.5
2017-05-22T01:35:18.977Z,12.42
2017-05-22T01:36:19.002Z,12.37
2017-05-22T01:37:19.035Z,12.27
2017-05-22T01:38:19.048Z,12.23
2017-05-22T01:39:19.084Z,12.09
2017-05-22T01:40:19.096Z,12.12
2017-05-22T01:41:33.735Z,12.14
2017-05-22T01:42:18.834Z,12.19
2017-05-22T01:43:33.784Z,12.21
2017-05-22T01:45:19.212Z,12.31
2017-05-22T01:46:19.241Z,12.17
2017-05-22T01:47:19.266Z,12.2
2017-05-22T01:48:19.279Z,12.13
2017-05-22T01:49:19.304Z,12.12
2017-05-22T01:50:19.327Z,12.1
2017-05-22T01:51:19.348Z,12.1
2017-05-22T01:52:19.371Z,12.16
2017-05-22T01:53:19.393Z,12.14
2017-05-22T01:54:19.411Z,12.14
2017-05-22T01:55:19.448Z,12.02
2017-05-22T01:56:19.470Z,12.04
2017-05-22T01:57:19.486Z,12.04
2017-05-22T01:58:19.508Z,11.98
2017-05-22T01:59:19.536Z,11.95
2017-05-22T02:00:19.552Z,12.05
2017-05-22T02:01:19.580Z,11.96
2017-05-22T02:03:19.626Z,12.02
2017-05-22T02:04:19.652Z,11.99
2017-05-22T02:05:19.668Z,11.95
2017-05-22T02:06:19.694Z,12.02
2017-05-22T02:07:19.713Z,12.05
2017-05-22T02:08:19.738Z,12.13
2017-05-22T02:09:34.371Z,12.27
2017-05-22T02:10:19.787Z,12.37
2017-05-22T02:11:19.798Z,12.28
2017-05-22T02:12:19.838Z,12.37
2017-05-22T02:13:34.463Z,12.37
2017-05-22T02:14:19.867Z,12.41
2017-05-22T02:15:19.899Z,12.52
2017-05-22T02:16:19.925Z,12.32
2017-05-22T02:17:19.995Z,12.38
2017-05-22T02:18:19.967Z,12.38
2017-05-22T02:19:19.982Z,12.35
2017-05-22T02:21:19.721Z,12.35
2017-05-22T02:22:20.070Z,12.32
2017-05-22T02:23:20.079Z,12.17
2017-05-22T02:24:20.095Z,12.2
2017-05-22T02:25:20.133Z,12.09
2017-05-22T02:26:20.159Z,11.96
2017-05-22T02:27:20.180Z,11.96
2017-05-22T02:28:20.193Z,11.94
2017-05-22T02:29:34.831Z,12.01
2017-05-22T02:30:20.254Z,12.16
2017-05-22T02:31:20.266Z,12.21
2017-05-22T02:32:20.280Z,12.24
2017-05-22T02:33:34.929Z,12.02
2017-05-22T02:34:20.341Z,12.01
2017-05-22T02:35:20.361Z,11.91
2017-05-22T02:36:20.385Z,11.72
2017-05-22T02:38:20.422Z,11.76
2017-05-22T02:39:20.520Z,11.65
2017-05-22T02:40:20.465Z,11.64
2017-05-22T02:41:20.484Z,11.54
2017-05-22T02:42:20.219Z,11.55
2017-05-22T02:43:20.536Z,11.52
2017-05-22T02:44:20.563Z,11.49
2017-05-22T02:45:35.197Z,11.52
2017-05-22T02:46:20.599Z,11.49
2017-05-22T02:47:20.633Z,11.47
2017-05-22T02:48:20.653Z,11.37
2017-05-22T02:49:20.682Z,11.36
2017-05-22T02:50:20.695Z,11.44
2017-05-22T02:51:20.722Z,11.35
2017-05-22T02:52:20.757Z,11.39
2017-05-22T02:53:20.756Z,11.33
2017-05-22T02:54:20.798Z,11.37
2017-05-22T02:55:20.802Z,11.44
2017-05-22T02:56:20.826Z,11.52
2017-05-22T02:57:20.855Z,11.6
2017-05-22T02:58:20.880Z,11.49
2017-05-22T02:59:20.896Z,11.43
2017-05-22T03:00:20.926Z,11.33
2017-05-22T03:01:35.565Z,11.28
2017-05-22T03:02:20.975Z,11.28
2017-05-22T03:03:20.996Z,11.33
2017-05-22T03:04:21.015Z,11.32
2017-05-22T03:05:20.730Z,11.29
2017-05-22T03:06:20.765Z,11.28
2017-05-22T03:08:21.107Z,11.22
2017-05-22T03:09:21.138Z,11.27
2017-05-22T03:10:21.150Z,11.27
2017-05-22T03:11:21.180Z,11.27
2017-05-22T03:12:21.204Z,11.24
2017-05-22T03:13:21.213Z,11.39
2017-05-22T03:14:21.246Z,11.4
2017-05-22T03:15:21.263Z,11.43
2017-05-22T03:16:35.903Z,11.61
2017-05-22T03:17:21.311Z,11.75
2017-05-22T03:18:21.321Z,11.78
2017-05-22T03:19:35.972Z,11.62
2017-05-22T03:20:35.993Z,11.6
2017-05-22T03:21:21.409Z,11.54
2017-05-22T03:22:21.422Z,11.57
2017-05-22T03:23:21.434Z,11.69
2017-05-22T03:24:21.468Z,11.62
2017-05-22T03:25:21.503Z,11.62
2017-05-22T03:26:21.511Z,11.6
2017-05-22T03:27:21.538Z,11.61
2017-05-22T03:28:21.562Z,11.57
2017-05-22T03:29:36.188Z,11.58
2017-05-22T03:30:21.598Z,11.52
2017-05-22T03:31:21.625Z,11.69
2017-05-22T03:32:21.651Z,11.76
2017-05-22T03:33:21.671Z,11.88
2017-05-22T03:34:21.697Z,11.78
2017-05-22T03:35:21.718Z,11.65
2017-05-22T03:36:21.745Z,11.67
2017-05-22T03:37:21.761Z,11.57
2017-05-22T03:38:21.801Z,11.49
2017-05-22T03:39:21.811Z,11.58
2017-05-22T03:40:21.828Z,11.51
2017-05-22T03:42:21.869Z,11.57
2017-05-22T03:43:21.899Z,11.61
2017-05-22T03:44:21.913Z,11.57
2017-05-22T03:45:36.550Z,11.47
2017-05-22T03:46:21.974Z,11.55
2017-05-22T03:47:21.988Z,11.54
2017-05-22T03:48:36.619Z,11.57
2017-05-22T03:49:22.040Z,11.61
2017-05-22T03:50:22.051Z,11.52
2017-05-22T03:52:36.721Z,11.7
2017-05-22T03:53:22.120Z,11.69
2017-05-22T03:54:22.149Z,11.72
2017-05-22T03:55:22.174Z,11.8
2017-05-22T03:56:22.198Z,11.79
2017-05-22T03:57:22.214Z,11.79
2017-05-22T03:58:22.287Z,11.72
2017-05-22T03:59:36.870Z,11.76
2017-05-22T04:00:22.298Z,11.69
2017-05-22T04:01:22.311Z,11.78
2017-05-22T04:02:22.341Z,11.94
2017-05-22T04:04:36.991Z,12.07
2017-05-22T04:05:22.389Z,11.99
2017-05-22T04:07:22.445Z,12.14
2017-05-22T04:08:37.135Z,12.04
2017-05-22T04:09:22.487Z,12.04
2017-05-22T04:10:22.505Z,12.02
2017-05-22T04:11:22.533Z,12.02
2017-05-22T04:12:22.563Z,12.09
2017-05-22T04:14:22.600Z,12.05
2017-05-22T04:15:22.638Z,12.04
2017-05-22T04:16:22.652Z,12.04
2017-05-22T04:17:22.674Z,12.07
2017-05-22T04:18:22.705Z,12.02
2017-05-22T04:19:22.724Z,12.05
2017-05-22T04:20:37.358Z,12.07
2017-05-22T04:21:22.778Z,12.05
2017-05-22T04:22:22.781Z,12.04
2017-05-22T04:23:22.511Z,12.05
2017-05-22T04:24:22.834Z,12.13
2017-05-22T04:25:22.867Z,12.19
2017-05-22T04:26:22.869Z,12.29
2017-05-22T04:27:22.905Z,12.23
2017-05-22T04:28:22.940Z,12.2
2017-05-22T04:30:22.981Z,12.41
2017-05-22T04:31:23.007Z,12.32
2017-05-22T04:32:22.717Z,12.35
2017-05-22T04:33:23.034Z,12.29
2017-05-22T04:34:23.080Z,12.41
2017-05-22T04:35:23.088Z,12.35
2017-05-22T04:36:37.729Z,12.41
2017-05-22T04:37:23.123Z,12.41
2017-05-22T04:38:23.147Z,12.46
2017-05-22T04:39:23.190Z,12.54
2017-05-22T04:40:23.203Z,12.65
2017-05-22T04:41:23.246Z,12.82
2017-05-22T04:42:23.250Z,12.95
2017-05-22T04:43:23.285Z,13.08
2017-05-22T04:44:23.006Z,13.12
2017-05-22T04:45:23.315Z,13.25
2017-05-22T04:46:23.341Z,13.51
2017-05-22T04:47:23.373Z,13.64
2017-05-22T04:48:23.395Z,13.88
2017-05-22T04:50:23.431Z,14.12
2017-05-22T04:51:37.776Z,14.21
2017-05-22T04:52:23.493Z,14.22
2017-05-22T04:53:38.128Z,14.5
2017-05-22T04:54:23.539Z,14.64
2017-05-22T04:55:23.553Z,14.6
2017-05-22T04:56:23.585Z,14.54
2017-05-22T04:57:23.310Z,14.51
2017-05-22T04:58:23.645Z,14.7
2017-05-22T04:59:23.657Z,14.92
2017-05-22T05:00:23.685Z,15.09
2017-05-22T05:01:23.707Z,15.34
2017-05-22T05:02:23.434Z,15.43
2017-05-22T05:03:23.451Z,15.65
2017-05-22T05:04:23.778Z,15.89
2017-05-22T05:05:23.198Z,16.04
2017-05-22T05:06:23.821Z,16.3
2017-05-22T05:07:23.856Z,16.45
2017-05-22T05:08:23.877Z,16.53
2017-05-22T05:09:23.904Z,16.56
2017-05-22T05:10:23.917Z,16.73
2017-05-22T05:11:23.950Z,17
2017-05-22T05:12:38.598Z,17.58
2017-05-22T05:13:24.018Z,17.93
2017-05-22T05:14:24.022Z,18.17
2017-05-22T05:15:24.052Z,18.41
2017-05-22T05:16:24.090Z,19.02
2017-05-22T05:17:38.715Z,20.16
2017-05-22T05:18:24.139Z,20.66
2017-05-22T05:19:24.167Z,21.29
2017-05-22T05:20:38.794Z,22.02
2017-05-22T05:22:24.236Z,23.39
2017-05-22T05:23:38.881Z,24.47
2017-05-22T05:24:24.302Z,24.55
2017-05-22T05:25:24.325Z,24.64
2017-05-22T05:26:24.350Z,24.69
2017-05-22T05:27:38.994Z,25.23
2017-05-22T05:28:24.416Z,25.39
2017-05-22T05:29:24.444Z,25.8
2017-05-22T05:30:24.476Z,26.06
2017-05-22T05:31:24.199Z,26.51
2017-05-22T05:32:24.532Z,26.54
2017-05-22T05:33:24.556Z,26.72
2017-05-22T05:34:24.581Z,26.7
2017-05-22T05:35:24.616Z,26.8
2017-05-22T05:36:24.658Z,27.06
2017-05-22T05:37:39.293Z,27.22
2017-05-22T05:38:24.725Z,27.51
2017-05-22T05:39:39.367Z,28.33
2017-05-22T05:40:24.773Z,28.52
2017-05-22T05:41:24.823Z,28.66
2017-05-22T05:42:24.843Z,28.46
2017-05-22T05:43:24.869Z,27.75
2017-05-22T05:44:24.915Z,28.19
2017-05-22T05:45:24.948Z,28.27
2017-05-22T05:47:25.029Z,28.15
2017-05-22T05:48:25.059Z,28.25
2017-05-22T05:49:39.695Z,28.14
2017-05-22T05:50:39.732Z,28.8
2017-05-22T05:51:25.162Z,29.21
2017-05-22T05:52:25.188Z,29.82
2017-05-22T05:53:25.234Z,29.89
2017-05-22T05:54:25.267Z,29.63
2017-05-22T05:55:39.912Z,29.79
2017-05-22T05:56:25.337Z,30.26
2017-05-22T05:57:25.065Z,30.34
2017-05-22T05:58:25.399Z,30.82
2017-05-22T05:59:25.422Z,30.69
2017-05-22T06:00:25.467Z,31.07
2017-05-22T06:01:25.507Z,31.04
2017-05-22T06:02:25.543Z,30.97
2017-05-22T06:04:25.317Z,31.1
2017-05-22T06:05:25.650Z,30.84
2017-05-22T06:07:25.730Z,31.1
2017-05-22T06:08:25.755Z,30.86
2017-05-22T06:10:25.824Z,31.76
2017-05-22T06:11:40.478Z,31.88
2017-05-22T06:12:25.891Z,31.96
2017-05-22T06:13:25.946Z,31.84
2017-05-22T06:14:25.979Z,31.88
2017-05-22T06:15:26.018Z,31.62
2017-05-22T06:16:26.055Z,31.61
2017-05-22T06:17:40.699Z,31.48
2017-05-22T06:18:26.129Z,31.34
2017-05-22T06:19:26.158Z,30.77
2017-05-22T06:20:26.199Z,30.04
2017-05-22T06:21:26.226Z,30.31
2017-05-22T06:22:26.259Z,30.89
2017-05-22T06:23:25.988Z,30.65
2017-05-22T06:24:26.342Z,30.57
2017-05-22T06:25:26.373Z,30.55
2017-05-22T06:26:41.032Z,30.24
2017-05-22T06:27:41.073Z,30.16
2017-05-22T06:28:26.487Z,30.55
2017-05-22T06:29:26.571Z,30.38
2017-05-22T06:30:26.250Z,30.72
2017-05-22T06:31:26.586Z,30.46
2017-05-22T06:32:26.644Z,30.73
2017-05-22T06:33:26.665Z,31.09
2017-05-22T06:34:26.707Z,31.38
2017-05-22T06:36:26.775Z,30.47
2017-05-22T06:37:26.803Z,29.86
2017-05-22T06:38:26.848Z,29.15
2017-05-22T06:39:26.583Z,28.7
2017-05-22T06:40:26.930Z,28.11
2017-05-22T06:41:26.954Z,28.36
2017-05-22T06:42:26.993Z,28.8
2017-05-22T06:44:27.055Z,29.05
2017-05-22T06:45:27.146Z,29.33
2017-05-22T06:46:26.834Z,28.81
2017-05-22T06:47:27.161Z,28.89
2017-05-22T06:48:27.200Z,29.34
2017-05-22T06:49:27.261Z,29.73
2017-05-22T06:50:27.268Z,30.46
2017-05-22T06:51:27.001Z,30.7
2017-05-22T06:52:27.353Z,30.79
2017-05-22T06:53:27.086Z,31.14
2017-05-22T06:54:42.031Z,31.17
2017-05-22T06:55:27.154Z,31.09
2017-05-22T06:56:27.512Z,31.09
2017-05-22T06:57:27.219Z,30.88
2017-05-22T06:58:42.188Z,31.47
2017-05-22T06:59:27.609Z,30.72
2017-05-22T07:00:27.645Z,30.29
2017-05-22T07:02:27.419Z,30.97
2017-05-22T07:03:42.372Z,31.32
2017-05-22T07:04:27.492Z,31.46
2017-05-22T07:05:27.833Z,31.53
2017-05-22T07:06:27.625Z,31.58
2017-05-22T07:08:27.627Z,31.73
2017-05-22T07:09:27.965Z,31.58
2017-05-22T07:10:42.622Z,31.78
2017-05-22T07:11:28.044Z,31.91
2017-05-22T07:12:42.696Z,31.7
2017-05-22T07:13:27.824Z,32.06
2017-05-22T07:14:42.774Z,32.19
2017-05-22T07:15:28.209Z,32.38
2017-05-22T07:16:28.227Z,32.03
2017-05-22T07:17:28.263Z,32.23
2017-05-22T07:18:28.311Z,31.8
2017-05-22T07:19:28.043Z,31.48
2017-05-22T07:20:28.381Z,31.72
2017-05-22T07:21:28.422Z,32.32
2017-05-22T07:23:28.193Z,32.13
2017-05-22T07:24:28.231Z,32
2017-05-22T07:25:28.628Z,32.01
2017-05-22T07:26:28.599Z,32.03
2017-05-22T07:27:28.654Z,31.81
2017-05-22T07:28:28.388Z,31.44
2017-05-22T07:30:43.368Z,31.46
2017-05-22T07:31:28.804Z,31.1
2017-05-22T07:32:28.527Z,30.92
2017-05-22T07:33:28.874Z,31.44
2017-05-22T07:34:28.620Z,31.04
2017-05-22T07:35:28.943Z,30.79
2017-05-22T07:36:28.685Z,30.94
2017-05-22T07:37:29.019Z,30.83
2017-05-22T07:39:29.092Z,30.64
2017-05-22T07:40:29.129Z,30.72
2017-05-22T07:41:29.165Z,30.65
2017-05-22T07:42:29.212Z,31.04
2017-05-22T07:43:29.235Z,30.95
2017-05-22T07:44:29.339Z,30.55
2017-05-22T07:45:29.317Z,30.34
2017-05-22T07:46:43.658Z,30.67
2017-05-22T07:47:29.403Z,30.64
2017-05-22T07:48:29.434Z,30.76
2017-05-22T07:49:29.464Z,30.49
2017-05-22T07:50:44.120Z,30.15
2017-05-22T07:51:29.539Z,30.32
2017-05-22T07:52:29.576Z,30.55
2017-05-22T07:53:29.637Z,30.89
2017-05-22T07:54:29.652Z,30.45
2017-05-22T07:55:29.693Z,30.53
2017-05-22T07:56:29.731Z,30.89
2017-05-22T07:57:29.755Z,31.47
2017-05-22T07:58:29.790Z,31.47
2017-05-22T07:59:29.849Z,31.91
2017-05-22T08:00:29.870Z,31.73
2017-05-22T08:01:44.519Z,32.13
2017-05-22T08:03:29.973Z,32.25
2017-05-22T08:04:30.024Z,32.45
2017-05-22T08:05:30.057Z,32.23
2017-05-22T08:07:30.141Z,31.76
2017-05-22T08:08:30.218Z,32.32
2017-05-22T08:09:30.206Z,32.11
2017-05-22T08:10:29.929Z,31.78
2017-05-22T08:13:30.348Z,31.47
2017-05-22T08:14:29.782Z,31.72
2017-05-22T08:15:30.422Z,31.96
2017-05-22T08:16:30.465Z,32.21
2017-05-22T08:17:30.502Z,32.21
2017-05-22T08:18:45.158Z,32.26
2017-05-22T08:19:30.634Z,32.43
2017-05-22T08:20:45.230Z,32.37
2017-05-22T08:21:30.645Z,31.99
2017-05-22T08:22:30.697Z,32.47
2017-05-22T08:23:31.028Z,32.67
2017-05-22T08:24:30.769Z,32.77
2017-05-22T08:25:30.795Z,31.34
2017-05-22T08:26:30.832Z,30.69
2017-05-22T08:27:30.871Z,31.16
2017-05-22T08:28:30.907Z,31.26
2017-05-22T08:29:30.950Z,31.48
2017-05-22T08:30:31.282Z,31.53
2017-05-22T08:31:31.018Z,30.95
2017-05-22T08:32:31.070Z,30.67
2017-05-22T08:33:45.710Z,30.91
2017-05-22T08:34:31.135Z,31.34
2017-05-22T08:35:31.157Z,31.73
2017-05-22T08:36:31.198Z,32.11
2017-05-22T08:37:31.236Z,32
2017-05-22T08:38:31.272Z,31.78
2017-05-22T08:39:31.319Z,32.26
2017-05-22T08:40:31.046Z,32.22
2017-05-22T08:41:31.076Z,31.89
2017-05-22T08:42:31.423Z,31.88
2017-05-22T08:44:45.797Z,31.56
2017-05-22T08:45:31.217Z,31.19
2017-05-22T08:46:31.254Z,31.13
2017-05-22T08:47:31.299Z,31.53
2017-05-22T08:48:31.334Z,31.57
2017-05-22T08:49:46.284Z,31.47
2017-05-22T08:50:31.716Z,31.53
2017-05-22T08:51:31.434Z,31.57
2017-05-22T08:52:31.467Z,32.11
2017-05-22T08:53:31.511Z,32.32
2017-05-22T08:54:31.554Z,32.18
2017-05-22T08:55:31.591Z,32.07
2017-05-22T08:57:31.971Z,31.58
2017-05-22T08:58:31.690Z,31.65
2017-05-22T08:59:31.729Z,31.61
2017-05-22T09:00:31.775Z,31.31
2017-05-22T09:01:46.719Z,30.82
2017-05-22T09:02:32.141Z,30.79
2017-05-22T09:03:31.878Z,31.1
2017-05-22T09:04:32.207Z,30.97
2017-05-22T09:05:46.861Z,30.53
2017-05-22T09:06:32.289Z,30.16
2017-05-22T09:07:32.313Z,30.07
2017-05-22T09:08:32.357Z,29.73
2017-05-22T09:09:32.405Z,28.73
2017-05-22T09:10:32.125Z,28.29
2017-05-22T09:11:32.173Z,28.09
2017-05-22T09:12:32.192Z,27.81
2017-05-22T09:13:32.527Z,28.43
2017-05-22T09:15:32.314Z,29.71
2017-05-22T09:16:32.338Z,29.82
2017-05-22T09:17:32.676Z,29.26
2017-05-22T09:18:32.713Z,28.22
2017-05-22T09:19:32.454Z,27.67
2017-05-22T09:20:32.774Z,27.04
2017-05-22T09:21:47.439Z,26.69
2017-05-22T09:22:32.855Z,26.47
2017-05-22T09:23:32.893Z,25.92
2017-05-22T09:24:32.914Z,25.82
2017-05-22T09:25:32.652Z,25.92
2017-05-22T09:26:32.695Z,26.51
2017-05-22T09:27:32.726Z,27.51
2017-05-22T09:29:33.085Z,29.33
2017-05-22T09:30:33.118Z,29.36
2017-05-22T09:31:32.854Z,29.63
2017-05-22T09:32:47.807Z,29.85
2017-05-22T09:33:33.245Z,29.61
2017-05-22T09:34:47.873Z,28.33
2017-05-22T09:35:33.294Z,28.37
2017-05-22T09:36:47.943Z,28
2017-05-22T09:38:33.387Z,27.7
2017-05-22T09:40:48.085Z,27.1
2017-05-22T09:41:33.509Z,26.3
2017-05-22T09:42:33.533Z,25.47
2017-05-22T09:43:33.568Z,25.06
2017-05-22T09:44:33.606Z,24.64
2017-05-22T09:45:33.329Z,24.4
2017-05-22T09:46:33.672Z,24.4
2017-05-22T09:47:33.400Z,24.35
2017-05-22T09:48:33.433Z,23.48
2017-05-22T09:49:33.770Z,23.33
2017-05-22T09:50:33.810Z,23.28
2017-05-22T09:51:33.835Z,23.63
2017-05-22T09:52:33.862Z,23.78
2017-05-22T09:53:33.906Z,24.42
2017-05-22T09:54:33.943Z,25.5
2017-05-22T09:55:33.964Z,26.76
2017-05-22T09:56:34.005Z,27.9
2017-05-22T09:57:34.034Z,28.81
2017-05-22T09:58:34.058Z,29.3
2017-05-22T09:59:34.091Z,29.71
2017-05-22T10:00:34.427Z,29.61
2017-05-22T10:01:34.152Z,29.63
2017-05-22T10:02:34.184Z,29.31
2017-05-22T10:03:34.234Z,29.24
2017-05-22T10:04:34.257Z,29.3
2017-05-22T10:05:34.295Z,29.55
2017-05-22T10:06:34.022Z,29.97
2017-05-22T10:07:34.359Z,29.55
2017-05-22T10:08:48.700Z,29.71
2017-05-22T10:09:34.422Z,30.11
2017-05-22T10:10:34.445Z,30.58
2017-05-22T10:11:34.473Z,31.23
2017-05-22T10:12:34.518Z,31.81
2017-05-22T10:13:34.557Z,31.89
2017-05-22T10:14:34.586Z,31.8
2017-05-22T10:15:34.619Z,31.35
2017-05-22T10:16:34.648Z,30.6
2017-05-22T10:17:34.697Z,30.94
2017-05-22T10:18:34.724Z,31.38
2017-05-22T10:20:49.393Z,32.37
2017-05-22T10:21:34.820Z,32.47
2017-05-22T10:22:34.850Z,32.56
2017-05-22T10:23:34.895Z,32.92
2017-05-22T10:24:49.232Z,32.65
2017-05-22T10:25:49.572Z,32.45
2017-05-22T10:26:34.975Z,32.5
2017-05-22T10:27:34.723Z,32.4
2017-05-22T10:28:34.762Z,31.91
2017-05-22T10:29:35.086Z,31.84
2017-05-22T10:30:34.818Z,31.5
2017-05-22T10:31:35.151Z,31.28
2017-05-22T10:32:35.197Z,30.86
2017-05-22T10:33:35.231Z,30.11
2017-05-22T10:34:35.258Z,29.89
2017-05-22T10:35:35.296Z,29.71
2017-05-22T10:36:35.329Z,29.37
2017-05-22T10:37:35.367Z,29.31
2017-05-22T10:38:35.079Z,29.14
2017-05-22T10:39:35.433Z,28.43
2017-05-22T10:40:50.076Z,28.07
2017-05-22T10:41:35.488Z,28.15
2017-05-22T10:42:35.533Z,28
2017-05-22T10:44:50.205Z,28.04
2017-05-22T10:46:35.652Z,27.94
2017-05-22T10:47:35.750Z,27.78
2017-05-22T10:49:35.764Z,27.27
2017-05-22T10:50:35.796Z,27.14
2017-05-22T10:51:35.822Z,27.19
2017-05-22T10:52:35.850Z,26.99
2017-05-22T10:53:35.883Z,27.14
2017-05-22T10:54:35.915Z,27.21
2017-05-22T10:56:50.585Z,26.89
2017-05-22T10:57:50.630Z,26.55
2017-05-22T10:58:36.043Z,26.21
2017-05-22T10:59:36.076Z,26.28
2017-05-22T11:00:36.113Z,26.35
2017-05-22T11:01:36.136Z,26.4
2017-05-22T11:02:36.176Z,26.5
2017-05-22T11:03:35.906Z,26.39
2017-05-22T11:04:35.621Z,26.65
2017-05-22T11:07:36.026Z,26.94
2017-05-22T11:08:36.360Z,27.36
2017-05-22T11:09:36.082Z,27.6
2017-05-22T11:10:36.498Z,27.81
2017-05-22T11:11:50.769Z,27.65
2017-05-22T11:12:36.490Z,27.75
2017-05-22T11:13:36.517Z,27.5
2017-05-22T11:14:36.552Z,27.7
2017-05-22T11:15:51.202Z,27.4
2017-05-22T11:16:36.615Z,27.41
2017-05-22T11:17:36.337Z,27.32
2017-05-22T11:18:36.373Z,27.12
2017-05-22T11:19:36.715Z,27.66
2017-05-22T11:20:36.732Z,27.93
2017-05-22T11:21:36.476Z,27.81
2017-05-22T11:22:36.806Z,28.09
2017-05-22T11:23:36.846Z,28.34
2017-05-22T11:24:36.856Z,28.61
2017-05-22T11:25:36.597Z,28.92
2017-05-22T11:27:36.961Z,29
2017-05-22T11:28:36.995Z,28.54
2017-05-22T11:29:37.045Z,28.43
2017-05-22T11:30:37.058Z,28.36
2017-05-22T11:31:36.779Z,28.24
2017-05-22T11:32:37.121Z,28.11
2017-05-22T11:33:37.143Z,27.85
2017-05-22T11:34:37.176Z,27.77
2017-05-22T11:37:37.281Z,27.66
2017-05-22T11:38:37.007Z,27.67
2017-05-22T11:39:37.046Z,27.66
2017-05-22T11:40:37.065Z,27.99
2017-05-22T11:41:37.097Z,28.19
2017-05-22T11:42:37.136Z,28.43
2017-05-22T11:43:51.783Z,28.14
2017-05-22T11:44:37.508Z,28.11
2017-05-22T11:45:37.519Z,27.96
2017-05-22T11:46:37.262Z,27.94
2017-05-22T11:47:37.585Z,27.72
2017-05-22T11:49:37.652Z,27.66
2017-05-22T11:50:37.674Z,27.29
2017-05-22T11:51:37.783Z,27.13
2017-05-22T11:52:52.378Z,27
2017-05-22T11:53:37.472Z,26.91
2017-05-22T11:54:37.803Z,26.69
2017-05-22T11:55:37.833Z,26.39
2017-05-22T11:56:37.864Z,26.67
2017-05-22T11:57:37.915Z,26.75
2017-05-22T11:59:52.586Z,27.03
2017-05-22T12:00:37.990Z,27.06
2017-05-22T12:01:38.020Z,27.13
2017-05-22T12:02:38.070Z,26.47
2017-05-22T12:03:38.086Z,26.02
2017-05-22T12:04:38.133Z,25.64
2017-05-22T12:05:38.154Z,26.02
2017-05-22T12:06:37.882Z,26.51
2017-05-22T12:07:37.971Z,26.76
2017-05-22T12:08:38.238Z,27.06
2017-05-22T12:10:38.360Z,27.39
2017-05-22T12:11:38.332Z,26.58
2017-05-22T12:12:38.379Z,26.01
2017-05-22T12:13:38.409Z,25.58
2017-05-22T12:14:38.431Z,25.55
2017-05-22T12:15:53.077Z,25.6
2017-05-22T12:16:38.495Z,25.54
2017-05-22T12:17:38.524Z,25.1
2017-05-22T12:18:38.555Z,24.57
2017-05-22T12:19:38.578Z,24.43
2017-05-22T12:20:38.309Z,24.16
2017-05-22T12:23:38.696Z,23.78
2017-05-22T12:24:38.736Z,23.6
2017-05-22T12:25:38.778Z,23.54
2017-05-22T12:26:38.807Z,23.69
2017-05-22T12:27:38.826Z,23.68
2017-05-22T12:28:38.866Z,23.47
2017-05-22T12:30:38.906Z,23.31
2017-05-22T12:31:53.564Z,23.46
2017-05-22T12:32:38.668Z,23.47
2017-05-22T12:34:38.734Z,23.94
2017-05-22T12:35:53.377Z,24.1
2017-05-22T12:36:39.085Z,24.13
2017-05-22T12:37:39.126Z,24.18
2017-05-22T12:38:39.146Z,24.24
2017-05-22T12:39:39.182Z,24.43
2017-05-22T12:41:39.243Z,24.35
2017-05-22T12:42:39.274Z,24.43
2017-05-22T12:43:39.292Z,24.57
2017-05-22T12:44:39.331Z,24.61
2017-05-22T12:46:54.007Z,24.73
2017-05-22T12:47:39.421Z,24.6
2017-05-22T12:48:39.458Z,24.93
2017-05-22T12:49:39.483Z,24.93
2017-05-22T12:51:39.542Z,24.8
2017-05-22T12:52:39.571Z,24.76
2017-05-22T12:53:39.612Z,24.53
2017-05-22T12:55:39.668Z,24.47
2017-05-22T12:56:39.696Z,24.85
2017-05-22T12:57:39.738Z,25.03
2017-05-22T12:58:39.752Z,25.18
2017-05-22T12:59:39.782Z,25.33
2017-05-22T13:00:39.813Z,25.43
2017-05-22T13:01:39.831Z,25.4
2017-05-22T13:02:39.878Z,25.3
2017-05-22T13:03:39.895Z,24.73
2017-05-22T13:04:39.926Z,24.43
2017-05-22T13:05:39.346Z,24.42
2017-05-22T13:06:40.006Z,24.69
2017-05-22T13:07:39.710Z,24.95
2017-05-22T13:08:40.044Z,24.93
2017-05-22T13:09:40.085Z,25.17
2017-05-22T13:11:40.121Z,25.58
2017-05-22T13:12:39.854Z,25.43
2017-05-22T13:13:39.884Z,25.23
2017-05-22T13:14:40.213Z,25.32
2017-05-22T13:15:40.255Z,25.54
2017-05-22T13:17:40.308Z,25.82
2017-05-22T13:18:54.953Z,25.54
2017-05-22T13:19:40.362Z,25.5
2017-05-22T13:20:40.403Z,25.21
2017-05-22T13:21:40.419Z,25.18
2017-05-22T13:22:55.072Z,24.91
2017-05-22T13:23:40.500Z,24.91
2017-05-22T13:24:40.509Z,25.17
2017-05-22T13:25:40.550Z,25.72
2017-05-22T13:26:40.573Z,26.01
2017-05-22T13:27:40.595Z,26.39
2017-05-22T13:28:40.635Z,26.48
2017-05-22T13:29:54.971Z,26.62
2017-05-22T13:30:55.301Z,26.94
2017-05-22T13:31:40.717Z,26.95
2017-05-22T13:32:40.746Z,26.94
2017-05-22T13:33:40.795Z,26.95
2017-05-22T13:34:55.425Z,26.81
2017-05-22T13:35:40.851Z,26.5
2017-05-22T13:36:40.873Z,26.44
2017-05-22T13:37:40.894Z,26.39
2017-05-22T13:38:40.948Z,26.47
2017-05-22T13:39:40.960Z,26.47
2017-05-22T13:40:40.994Z,26.45
2017-05-22T13:41:41.022Z,26.32
2017-05-22T13:42:41.048Z,26.32
2017-05-22T13:43:41.081Z,26.21
2017-05-22T13:44:41.108Z,26.05
2017-05-22T13:45:41.135Z,25.99
2017-05-22T13:46:41.236Z,25.83
2017-05-22T13:47:41.200Z,25.73
2017-05-22T13:50:55.948Z,25.03
2017-05-22T13:51:41.315Z,24.68
2017-05-22T13:52:41.033Z,24.77
2017-05-22T13:53:41.378Z,24.88
2017-05-22T13:55:41.427Z,25.15
2017-05-22T13:56:41.472Z,25.06
2017-05-22T13:57:41.192Z,25.09
2017-05-22T13:58:41.522Z,25.21
2017-05-22T13:59:41.612Z,25.3